sensor_id;sensor_type;location;lat;lon;timestamp;temperature;humidity
3794;DHT22;1912;51.358;12.282;2023-01-13T00:00:58;10.40;1.00
3794;DHT22;1912;51.358;12.282;2023-01-13T00:03:24;10.40;1.00
3794;DHT22;1912;51.358;12.282;2023-01-13T00:05:50;10.30;1.00
3794;DHT22;1912;51.358;12.282;2023-01-13T00:08:16;10.30;1.00
3794;DHT22;1912;51.358;12.282;2023-01-13T00:10:46;10.30;1.00
3794;DHT22;1912;51.358;12.282;2023-01-13T00:13:12;10.20;1.00
3794;DHT22;1912;51.358;12.282;2023-01-13T00:15:38;10.20;1.00
3794;DHT22;1912;51.358;12.282;2023-01-13T00:18:03;10.20;1.00
3794;DHT22;1912;51.358;12.282;2023-01-13T00:20:29;10.30;1.00
3794;DHT22;1912;51.358;12.282;2023-01-13T00:22:55;10.20;1.00
3794;DHT22;1912;51.358;12.282;2023-01-13T00:25:21;10.20;1.00
3794;DHT22;1912;51.358;12.282;2023-01-13T00:27:47;10.20;1.00
3794;DHT22;1912;51.358;12.282;2023-01-13T00:30:12;10.20;1.00
3794;DHT22;1912;51.358;12.282;2023-01-13T00:32:38;10.20;1.00
3794;DHT22;1912;51.358;12.282;2023-01-13T00:35:04;10.10;1.00
3794;DHT22;1912;51.358;12.282;2023-01-13T00:37:30;10.10;1.00
3794;DHT22;1912;51.358;12.282;2023-01-13T00:39:56;10.10;1.00
3794;DHT22;1912;51.358;12.282;2023-01-13T00:42:22;10.10;1.00
3794;DHT22;1912;51.358;12.282;2023-01-13T00:45:06;10.10;1.00
3794;DHT22;1912;51.358;12.282;2023-01-13T00:47:32;10.20;1.00
3794;DHT22;1912;51.358;12.282;2023-01-13T00:49:58;10.20;1.00
3794;DHT22;1912;51.358;12.282;2023-01-13T00:52:24;10.10;1.00
3794;DHT22;1912;51.358;12.282;2023-01-13T00:54:49;10.10;1.00
3794;DHT22;1912;51.358;12.282;2023-01-13T00:57:15;10.10;1.00
3794;DHT22;1912;51.358;12.282;2023-01-13T00:59:41;10.10;1.00
3794;DHT22;1912;51.358;12.282;2023-01-13T01:02:06;10.10;1.00
3794;DHT22;1912;51.358;12.282;2023-01-13T01:04:32;10.10;1.00
3794;DHT22;1912;51.358;12.282;2023-01-13T01:06:57;10.10;1.00
3794;DHT22;1912;51.358;12.282;2023-01-13T01:09:23;10.10;1.00
3794;DHT22;1912;51.358;12.282;2023-01-13T01:11:57;10.10;1.00
3794;DHT22;1912;51.358;12.282;2023-01-13T01:14:24;10.20;1.00
3794;DHT22;1912;51.358;12.282;2023-01-13T01:16:51;10.20;1.00
3794;DHT22;1912;51.358;12.282;2023-01-13T01:19:17;10.20;1.00
3794;DHT22;1912;51.358;12.282;2023-01-13T01:21:43;10.10;1.00
3794;DHT22;1912;51.358;12.282;2023-01-13T01:24:09;10.20;1.00
3794;DHT22;1912;51.358;12.282;2023-01-13T01:26:34;10.10;1.00
3794;DHT22;1912;51.358;12.282;2023-01-13T01:29:00;10.10;1.00
3794;DHT22;1912;51.358;12.282;2023-01-13T01:31:31;10.10;1.00
3794;DHT22;1912;51.358;12.282;2023-01-13T01:33:58;10.10;1.00
3794;DHT22;1912;51.358;12.282;2023-01-13T01:36:26;10.10;1.00
3794;DHT22;1912;51.358;12.282;2023-01-13T01:38:56;10.10;1.00
3794;DHT22;1912;51.358;12.282;2023-01-13T01:41:25;10.20;1.00
3794;DHT22;1912;51.358;12.282;2023-01-13T01:43:55;10.10;1.00
3794;DHT22;1912;51.358;12.282;2023-01-13T01:46:29;10.10;1.00
3794;DHT22;1912;51.358;12.282;2023-01-13T01:49:15;10.10;1.00
3794;DHT22;1912;51.358;12.282;2023-01-13T01:52:01;10.20;1.00
3794;DHT22;1912;51.358;12.282;2023-01-13T01:54:42;10.20;1.00
3794;DHT22;1912;51.358;12.282;2023-01-13T01:57:29;10.20;1.00
3794;DHT22;1912;51.358;12.282;2023-01-13T02:00:02;10.20;1.00
3794;DHT22;1912;51.358;12.282;2023-01-13T02:02:29;10.20;1.00
3794;DHT22;1912;51.358;12.282;2023-01-13T02:04:55;10.30;1.00
3794;DHT22;1912;51.358;12.282;2023-01-13T02:07:24;10.20;1.00
3794;DHT22;1912;51.358;12.282;2023-01-13T02:09:54;10.30;1.00
3794;DHT22;1912;51.358;12.282;2023-01-13T02:12:21;10.30;1.00
3794;DHT22;1912;51.358;12.282;2023-01-13T02:15:04;10.30;1.00
3794;DHT22;1912;51.358;12.282;2023-01-13T02:24:02;10.30;1.00
3794;DHT22;1912;51.358;12.282;2023-01-13T02:27:26;10.40;1.00
3794;DHT22;1912;51.358;12.282;2023-01-13T02:33:50;10.30;1.00
3794;DHT22;1912;51.358;12.282;2023-01-13T02:36:43;10.40;1.00
3794;DHT22;1912;51.358;12.282;2023-01-13T02:39:21;10.40;1.00
3794;DHT22;1912;51.358;12.282;2023-01-13T02:42:04;10.40;1.00
3794;DHT22;1912;51.358;12.282;2023-01-13T02:45:00;10.40;1.00
3794;DHT22;1912;51.358;12.282;2023-01-13T02:47:35;10.30;1.00
3794;DHT22;1912;51.358;12.282;2023-01-13T02:50:11;10.40;1.00
3794;DHT22;1912;51.358;12.282;2023-01-13T02:52:56;10.40;1.00
3794;DHT22;1912;51.358;12.282;2023-01-13T02:55:36;10.40;1.00
3794;DHT22;1912;51.358;12.282;2023-01-13T02:58:05;10.50;1.00
3794;DHT22;1912;51.358;12.282;2023-01-13T03:00:33;10.40;1.00
3794;DHT22;1912;51.358;12.282;2023-01-13T03:03:00;10.40;1.00
3794;DHT22;1912;51.358;12.282;2023-01-13T03:05:26;10.50;1.00
3794;DHT22;1912;51.358;12.282;2023-01-13T03:07:58;10.60;1.00
3794;DHT22;1912;51.358;12.282;2023-01-13T03:13:51;10.50;1.00
3794;DHT22;1912;51.358;12.282;2023-01-13T03:17:10;10.50;1.00
3794;DHT22;1912;51.358;12.282;2023-01-13T03:20:06;10.50;1.00
3794;DHT22;1912;51.358;12.282;2023-01-13T03:22:46;10.40;1.00
3794;DHT22;1912;51.358;12.282;2023-01-13T03:25:27;10.40;1.00
3794;DHT22;1912;51.358;12.282;2023-01-13T03:28:01;10.40;1.00
3794;DHT22;1912;51.358;12.282;2023-01-13T03:30:47;10.40;1.00
3794;DHT22;1912;51.358;12.282;2023-01-13T03:33:33;10.40;1.00
3794;DHT22;1912;51.358;12.282;2023-01-13T03:36:05;10.50;1.00
3794;DHT22;1912;51.358;12.282;2023-01-13T03:38:36;10.50;1.00
3794;DHT22;1912;51.358;12.282;2023-01-13T03:41:11;10.40;1.00
3794;DHT22;1912;51.358;12.282;2023-01-13T03:43:50;10.50;1.00
3794;DHT22;1912;51.358;12.282;2023-01-13T03:49:56;10.50;1.00
3794;DHT22;1912;51.358;12.282;2023-01-13T03:52:46;10.40;1.00
3794;DHT22;1912;51.358;12.282;2023-01-13T03:55:21;10.40;1.00
3794;DHT22;1912;51.358;12.282;2023-01-13T03:58:00;10.40;1.00
3794;DHT22;1912;51.358;12.282;2023-01-13T04:46:41;10.30;1.00
3794;DHT22;1912;51.358;12.282;2023-01-13T04:49:06;10.40;1.00
3794;DHT22;1912;51.358;12.282;2023-01-13T04:51:32;10.40;1.00
3794;DHT22;1912;51.358;12.282;2023-01-13T04:53:57;10.30;1.00
3794;DHT22;1912;51.358;12.282;2023-01-13T04:56:23;10.30;1.00
3794;DHT22;1912;51.358;12.282;2023-01-13T04:58:49;10.30;1.00
3794;DHT22;1912;51.358;12.282;2023-01-13T05:01:14;10.30;1.00
3794;DHT22;1912;51.358;12.282;2023-01-13T05:03:40;10.30;1.00
3794;DHT22;1912;51.358;12.282;2023-01-13T05:06:06;10.20;1.00
3794;DHT22;1912;51.358;12.282;2023-01-13T05:08:31;10.20;1.00
3794;DHT22;1912;51.358;12.282;2023-01-13T05:11:00;10.20;1.00
3794;DHT22;1912;51.358;12.282;2023-01-13T05:13:46;10.20;1.00
3794;DHT22;1912;51.358;12.282;2023-01-13T05:16:30;10.20;1.00
3794;DHT22;1912;51.358;12.282;2023-01-13T05:19:14;10.20;1.00
3794;DHT22;1912;51.358;12.282;2023-01-13T05:21:39;10.20;1.00
3794;DHT22;1912;51.358;12.282;2023-01-13T05:24:23;10.20;1.00
3794;DHT22;1912;51.358;12.282;2023-01-13T05:27:07;10.20;1.00
3794;DHT22;1912;51.358;12.282;2023-01-13T05:29:33;10.20;1.00
3794;DHT22;1912;51.358;12.282;2023-01-13T05:31:59;10.10;1.00
3794;DHT22;1912;51.358;12.282;2023-01-13T05:34:26;10.20;1.00
3794;DHT22;1912;51.358;12.282;2023-01-13T05:36:52;10.20;1.00
3794;DHT22;1912;51.358;12.282;2023-01-13T05:39:18;10.20;1.00
3794;DHT22;1912;51.358;12.282;2023-01-13T05:41:43;10.20;1.00
3794;DHT22;1912;51.358;12.282;2023-01-13T05:44:27;10.30;1.00
3794;DHT22;1912;51.358;12.282;2023-01-13T05:46:53;10.30;1.00
3794;DHT22;1912;51.358;12.282;2023-01-13T05:49:19;10.30;1.00
3794;DHT22;1912;51.358;12.282;2023-01-13T05:51:44;10.20;1.00
3794;DHT22;1912;51.358;12.282;2023-01-13T05:54:10;10.30;1.00
3794;DHT22;1912;51.358;12.282;2023-01-13T05:56:36;10.30;1.00
3794;DHT22;1912;51.358;12.282;2023-01-13T05:59:01;10.30;1.00
3794;DHT22;1912;51.358;12.282;2023-01-13T06:01:27;10.30;1.00
3794;DHT22;1912;51.358;12.282;2023-01-13T06:03:52;10.30;1.00
3794;DHT22;1912;51.358;12.282;2023-01-13T06:06:18;10.30;1.00
3794;DHT22;1912;51.358;12.282;2023-01-13T06:08:44;10.30;1.00
3794;DHT22;1912;51.358;12.282;2023-01-13T06:11:09;10.30;1.00
3794;DHT22;1912;51.358;12.282;2023-01-13T06:13:35;10.40;1.00
3794;DHT22;1912;51.358;12.282;2023-01-13T06:16:01;10.30;1.00
3794;DHT22;1912;51.358;12.282;2023-01-13T06:18:27;10.40;1.00
3794;DHT22;1912;51.358;12.282;2023-01-13T06:20:53;10.40;1.00
3794;DHT22;1912;51.358;12.282;2023-01-13T06:23:19;10.40;1.00
3794;DHT22;1912;51.358;12.282;2023-01-13T06:26:09;10.30;1.00
3794;DHT22;1912;51.358;12.282;2023-01-13T06:28:37;10.20;1.00
3794;DHT22;1912;51.358;12.282;2023-01-13T06:31:05;10.10;1.00
3794;DHT22;1912;51.358;12.282;2023-01-13T06:33:42;10.10;1.00
3794;DHT22;1912;51.358;12.282;2023-01-13T06:36:16;10.00;1.00
3794;DHT22;1912;51.358;12.282;2023-01-13T06:38:48;10.00;1.00
3794;DHT22;1912;51.358;12.282;2023-01-13T06:41:17;10.00;1.00
3794;DHT22;1912;51.358;12.282;2023-01-13T06:44:03;9.90;1.00
3794;DHT22;1912;51.358;12.282;2023-01-13T06:46:29;9.40;1.00
3794;DHT22;1912;51.358;12.282;2023-01-13T06:48:54;8.90;1.00
3794;DHT22;1912;51.358;12.282;2023-01-13T06:51:20;8.50;1.00
3794;DHT22;1912;51.358;12.282;2023-01-13T06:53:46;8.40;1.00
3794;DHT22;1912;51.358;12.282;2023-01-13T06:56:11;8.30;1.00
3794;DHT22;1912;51.358;12.282;2023-01-13T06:58:37;8.20;1.00
3794;DHT22;1912;51.358;12.282;2023-01-13T07:01:03;8.10;1.00
3794;DHT22;1912;51.358;12.282;2023-01-13T07:03:28;8.00;1.00
3794;DHT22;1912;51.358;12.282;2023-01-13T07:05:54;8.00;1.00
3794;DHT22;1912;51.358;12.282;2023-01-13T07:08:21;7.90;1.00
3794;DHT22;1912;51.358;12.282;2023-01-13T07:10:47;7.90;1.00
3794;DHT22;1912;51.358;12.282;2023-01-13T07:13:13;7.80;1.00
3794;DHT22;1912;51.358;12.282;2023-01-13T07:15:59;7.80;1.00
3794;DHT22;1912;51.358;12.282;2023-01-13T07:18:28;7.80;1.00
3794;DHT22;1912;51.358;12.282;2023-01-13T07:21:04;7.80;1.00
3794;DHT22;1912;51.358;12.282;2023-01-13T07:23:36;7.80;1.00
3794;DHT22;1912;51.358;12.282;2023-01-13T07:26:06;7.80;1.00
3794;DHT22;1912;51.358;12.282;2023-01-13T07:28:33;7.80;1.00
3794;DHT22;1912;51.358;12.282;2023-01-13T07:30:59;7.80;1.00
3794;DHT22;1912;51.358;12.282;2023-01-13T07:33:25;7.80;1.00
3794;DHT22;1912;51.358;12.282;2023-01-13T07:35:56;7.80;1.00
3794;DHT22;1912;51.358;12.282;2023-01-13T07:38:23;7.80;1.00
3794;DHT22;1912;51.358;12.282;2023-01-13T07:40:48;7.80;1.00
3794;DHT22;1912;51.358;12.282;2023-01-13T07:43:14;7.80;1.00
3794;DHT22;1912;51.358;12.282;2023-01-13T07:46:00;7.80;1.00
3794;DHT22;1912;51.358;12.282;2023-01-13T07:48:29;7.80;1.00
3794;DHT22;1912;51.358;12.282;2023-01-13T07:51:05;7.80;1.00
3794;DHT22;1912;51.358;12.282;2023-01-13T07:53:33;7.80;1.00
3794;DHT22;1912;51.358;12.282;2023-01-13T07:56:00;7.80;1.00
3794;DHT22;1912;51.358;12.282;2023-01-13T07:58:27;7.80;1.00
3794;DHT22;1912;51.358;12.282;2023-01-13T08:00:53;7.80;1.00
3794;DHT22;1912;51.358;12.282;2023-01-13T08:03:19;7.80;1.00
3794;DHT22;1912;51.358;12.282;2023-01-13T08:05:46;7.70;1.00
3794;DHT22;1912;51.358;12.282;2023-01-13T08:08:11;7.60;1.00
3794;DHT22;1912;51.358;12.282;2023-01-13T08:10:37;7.60;1.00
3794;DHT22;1912;51.358;12.282;2023-01-13T08:13:10;7.50;1.00
3794;DHT22;1912;51.358;12.282;2023-01-13T08:15:49;7.50;1.00
3794;DHT22;1912;51.358;12.282;2023-01-13T08:18:20;7.50;1.00
3794;DHT22;1912;51.358;12.282;2023-01-13T08:20:50;7.50;1.00
3794;DHT22;1912;51.358;12.282;2023-01-13T08:23:20;7.50;1.00
3794;DHT22;1912;51.358;12.282;2023-01-13T08:25:47;7.50;1.00
3794;DHT22;1912;51.358;12.282;2023-01-13T08:28:14;7.60;1.00
3794;DHT22;1912;51.358;12.282;2023-01-13T08:30:41;7.50;1.00
3794;DHT22;1912;51.358;12.282;2023-01-13T08:33:08;7.50;1.00
3794;DHT22;1912;51.358;12.282;2023-01-13T08:35:36;7.50;1.00
3794;DHT22;1912;51.358;12.282;2023-01-13T08:38:04;7.50;1.00
3794;DHT22;1912;51.358;12.282;2023-01-13T08:40:31;7.50;1.00
3794;DHT22;1912;51.358;12.282;2023-01-13T08:42:57;7.50;1.00
3794;DHT22;1912;51.358;12.282;2023-01-13T08:45:23;7.50;1.00
3794;DHT22;1912;51.358;12.282;2023-01-13T08:47:49;7.50;1.00
3794;DHT22;1912;51.358;12.282;2023-01-13T08:50:14;7.50;1.00
3794;DHT22;1912;51.358;12.282;2023-01-13T08:52:40;7.50;1.00
3794;DHT22;1912;51.358;12.282;2023-01-13T08:55:07;7.50;1.00
3794;DHT22;1912;51.358;12.282;2023-01-13T08:57:33;7.50;1.00
3794;DHT22;1912;51.358;12.282;2023-01-13T08:59:59;7.50;1.00
3794;DHT22;1912;51.358;12.282;2023-01-13T09:02:25;7.50;1.00
3794;DHT22;1912;51.358;12.282;2023-01-13T09:04:51;7.50;1.00
3794;DHT22;1912;51.358;12.282;2023-01-13T09:07:17;7.50;1.00
3794;DHT22;1912;51.358;12.282;2023-01-13T09:09:43;7.50;1.00
3794;DHT22;1912;51.358;12.282;2023-01-13T09:12:10;7.40;1.00
3794;DHT22;1912;51.358;12.282;2023-01-13T09:14:56;7.40;1.00
3794;DHT22;1912;51.358;12.282;2023-01-13T09:17:22;7.50;1.00
3794;DHT22;1912;51.358;12.282;2023-01-13T09:19:48;7.50;1.00
3794;DHT22;1912;51.358;12.282;2023-01-13T09:22:16;7.50;1.00
3794;DHT22;1912;51.358;12.282;2023-01-13T09:24:43;7.60;1.00
3794;DHT22;1912;51.358;12.282;2023-01-13T09:27:13;7.60;1.00
3794;DHT22;1912;51.358;12.282;2023-01-13T09:29:39;7.60;1.00
3794;DHT22;1912;51.358;12.282;2023-01-13T09:32:06;7.60;1.00
3794;DHT22;1912;51.358;12.282;2023-01-13T09:34:32;7.50;1.00
3794;DHT22;1912;51.358;12.282;2023-01-13T09:37:16;7.50;1.00
3794;DHT22;1912;51.358;12.282;2023-01-13T09:39:42;7.50;1.00
3794;DHT22;1912;51.358;12.282;2023-01-13T09:45:45;7.50;1.00
3794;DHT22;1912;51.358;12.282;2023-01-13T09:48:29;7.60;1.00
3794;DHT22;1912;51.358;12.282;2023-01-13T09:50:59;7.60;1.00
3794;DHT22;1912;51.358;12.282;2023-01-13T09:53:39;7.60;1.00
3794;DHT22;1912;51.358;12.282;2023-01-13T09:56:09;7.60;1.00
3794;DHT22;1912;51.358;12.282;2023-01-13T09:58:35;7.60;1.00
3794;DHT22;1912;51.358;12.282;2023-01-13T10:01:05;7.60;1.00
3794;DHT22;1912;51.358;12.282;2023-01-13T10:03:51;7.70;1.00
3794;DHT22;1912;51.358;12.282;2023-01-13T10:06:36;7.70;1.00
3794;DHT22;1912;51.358;12.282;2023-01-13T10:09:04;7.70;1.00
3794;DHT22;1912;51.358;12.282;2023-01-13T10:11:35;7.80;1.00
3794;DHT22;1912;51.358;12.282;2023-01-13T10:14:44;7.80;1.00
3794;DHT22;1912;51.358;12.282;2023-01-13T10:17:54;7.90;1.00
3794;DHT22;1912;51.358;12.282;2023-01-13T10:20:28;8.00;1.00
3794;DHT22;1912;51.358;12.282;2023-01-13T10:23:30;8.10;1.00
3794;DHT22;1912;51.358;12.282;2023-01-13T10:26:06;8.30;1.00
3794;DHT22;1912;51.358;12.282;2023-01-13T10:28:54;8.40;1.00
3794;DHT22;1912;51.358;12.282;2023-01-13T10:31:23;8.50;1.00
3794;DHT22;1912;51.358;12.282;2023-01-13T10:34:00;8.60;1.00
3794;DHT22;1912;51.358;12.282;2023-01-13T10:36:28;8.60;1.00
3794;DHT22;1912;51.358;12.282;2023-01-13T10:39:09;8.70;1.00
3794;DHT22;1912;51.358;12.282;2023-01-13T10:41:41;8.70;1.00
3794;DHT22;1912;51.358;12.282;2023-01-13T10:44:16;8.70;1.00
3794;DHT22;1912;51.358;12.282;2023-01-13T10:46:51;8.70;1.00
3794;DHT22;1912;51.358;12.282;2023-01-13T10:49:27;8.70;1.00
3794;DHT22;1912;51.358;12.282;2023-01-13T10:51:56;8.50;1.00
3794;DHT22;1912;51.358;12.282;2023-01-13T10:54:23;8.60;1.00
3794;DHT22;1912;51.358;12.282;2023-01-13T10:57:13;8.70;1.00
3794;DHT22;1912;51.358;12.282;2023-01-13T10:59:49;8.70;1.00
3794;DHT22;1912;51.358;12.282;2023-01-13T11:02:16;8.70;1.00
3794;DHT22;1912;51.358;12.282;2023-01-13T11:05:01;8.80;1.00
3794;DHT22;1912;51.358;12.282;2023-01-13T11:07:49;8.80;1.00
3794;DHT22;1912;51.358;12.282;2023-01-13T11:10:25;8.90;1.00
3794;DHT22;1912;51.358;12.282;2023-01-13T11:15:51;8.90;1.00
3794;DHT22;1912;51.358;12.282;2023-01-13T11:18:54;8.90;1.00
3794;DHT22;1912;51.358;12.282;2023-01-13T11:21:48;8.80;1.00
3794;DHT22;1912;51.358;12.282;2023-01-13T11:24:41;8.80;1.00
3794;DHT22;1912;51.358;12.282;2023-01-13T11:30:16;8.90;1.00
3794;DHT22;1912;51.358;12.282;2023-01-13T11:35:22;9.20;1.00
3794;DHT22;1912;51.358;12.282;2023-01-13T11:37:53;9.30;1.00
3794;DHT22;1912;51.358;12.282;2023-01-13T11:40:30;9.30;1.00
3794;DHT22;1912;51.358;12.282;2023-01-13T11:45:52;9.40;1.00
3794;DHT22;1912;51.358;12.282;2023-01-13T11:48:25;9.50;1.00
3794;DHT22;1912;51.358;12.282;2023-01-13T11:51:05;9.60;1.00
3794;DHT22;1912;51.358;12.282;2023-01-13T11:53:52;9.60;1.00
3794;DHT22;1912;51.358;12.282;2023-01-13T11:59:53;9.70;1.00
3794;DHT22;1912;51.358;12.282;2023-01-13T12:06:17;9.80;1.00
3794;DHT22;1912;51.358;12.282;2023-01-13T12:21:10;9.60;1.00
3794;DHT22;1912;51.358;12.282;2023-01-13T12:24:12;9.50;1.00
3794;DHT22;1912;51.358;12.282;2023-01-13T12:26:50;9.50;1.00
3794;DHT22;1912;51.358;12.282;2023-01-13T12:29:34;9.50;1.00
3794;DHT22;1912;51.358;12.282;2023-01-13T12:32:04;9.50;1.00
3794;DHT22;1912;51.358;12.282;2023-01-13T12:34:47;9.50;1.00
3794;DHT22;1912;51.358;12.282;2023-01-13T12:37:38;9.50;1.00
3794;DHT22;1912;51.358;12.282;2023-01-13T12:40:37;9.40;1.00
3794;DHT22;1912;51.358;12.282;2023-01-13T12:55:06;9.40;1.00
3794;DHT22;1912;51.358;12.282;2023-01-13T12:57:23;9.30;1.00
3794;DHT22;1912;51.358;12.282;2023-01-13T13:03:17;9.70;1.00
3794;DHT22;1912;51.358;12.282;2023-01-13T13:06:17;10.00;1.00
3794;DHT22;1912;51.358;12.282;2023-01-13T13:09:03;10.10;1.00
3794;DHT22;1912;51.358;12.282;2023-01-13T13:11:46;10.20;1.00
3794;DHT22;1912;51.358;12.282;2023-01-13T13:19:56;10.40;1.00
3794;DHT22;1912;51.358;12.282;2023-01-13T13:27:39;9.40;1.00
3794;DHT22;1912;51.358;12.282;2023-01-13T13:30:14;9.40;1.00
3794;DHT22;1912;51.358;12.282;2023-01-13T13:36:08;9.50;1.00
3794;DHT22;1912;51.358;12.282;2023-01-13T13:39:08;9.70;1.00
3794;DHT22;1912;51.358;12.282;2023-01-13T13:42:28;9.80;1.00
3794;DHT22;1912;51.358;12.282;2023-01-13T13:45:23;9.70;1.00
3794;DHT22;1912;51.358;12.282;2023-01-13T13:48:21;9.60;1.00
3794;DHT22;1912;51.358;12.282;2023-01-13T13:50:56;9.40;1.00
3794;DHT22;1912;51.358;12.282;2023-01-13T13:53:32;9.30;1.00
3794;DHT22;1912;51.358;12.282;2023-01-13T13:56:01;9.40;1.00
3794;DHT22;1912;51.358;12.282;2023-01-13T13:58:30;9.40;1.00
3794;DHT22;1912;51.358;12.282;2023-01-13T14:00:58;9.40;1.00
3794;DHT22;1912;51.358;12.282;2023-01-13T14:03:31;9.40;1.00
3794;DHT22;1912;51.358;12.282;2023-01-13T14:06:05;9.40;1.00
3794;DHT22;1912;51.358;12.282;2023-01-13T14:08:35;9.30;1.00
3794;DHT22;1912;51.358;12.282;2023-01-13T14:11:28;9.30;1.00
3794;DHT22;1912;51.358;12.282;2023-01-13T14:14:02;9.30;1.00
3794;DHT22;1912;51.358;12.282;2023-01-13T14:16:37;9.20;1.00
3794;DHT22;1912;51.358;12.282;2023-01-13T14:19:04;9.20;1.00
3794;DHT22;1912;51.358;12.282;2023-01-13T14:21:30;9.20;1.00
3794;DHT22;1912;51.358;12.282;2023-01-13T14:24:12;9.10;1.00
3794;DHT22;1912;51.358;12.282;2023-01-13T14:26:40;9.10;1.00
3794;DHT22;1912;51.358;12.282;2023-01-13T14:29:05;9.00;1.00
3794;DHT22;1912;51.358;12.282;2023-01-13T14:31:32;9.00;1.00
3794;DHT22;1912;51.358;12.282;2023-01-13T14:34:00;8.90;1.00
3794;DHT22;1912;51.358;12.282;2023-01-13T14:43:58;8.70;1.00
3794;DHT22;1912;51.358;12.282;2023-01-13T14:46:39;8.70;1.00
3794;DHT22;1912;51.358;12.282;2023-01-13T14:49:22;8.60;1.00
3794;DHT22;1912;51.358;12.282;2023-01-13T14:52:22;8.60;1.00
3794;DHT22;1912;51.358;12.282;2023-01-13T14:57:36;8.50;1.00
3794;DHT22;1912;51.358;12.282;2023-01-13T15:02:39;8.40;1.00
3794;DHT22;1912;51.358;12.282;2023-01-13T15:07:49;8.50;1.00
3794;DHT22;1912;51.358;12.282;2023-01-13T15:10:18;8.40;1.00
3794;DHT22;1912;51.358;12.282;2023-01-13T15:12:48;8.50;1.00
3794;DHT22;1912;51.358;12.282;2023-01-13T15:15:27;8.40;1.00
3794;DHT22;1912;51.358;12.282;2023-01-13T15:17:55;8.30;1.00
3794;DHT22;1912;51.358;12.282;2023-01-13T15:20:22;8.30;1.00
3794;DHT22;1912;51.358;12.282;2023-01-13T15:22:50;8.30;1.00
3794;DHT22;1912;51.358;12.282;2023-01-13T15:25:16;8.20;1.00
3794;DHT22;1912;51.358;12.282;2023-01-13T15:27:44;8.20;1.00
3794;DHT22;1912;51.358;12.282;2023-01-13T15:30:22;8.10;1.00
3794;DHT22;1912;51.358;12.282;2023-01-13T15:32:53;8.00;1.00
3794;DHT22;1912;51.358;12.282;2023-01-13T15:35:23;7.90;1.00
3794;DHT22;1912;51.358;12.282;2023-01-13T15:37:51;8.00;1.00
3794;DHT22;1912;51.358;12.282;2023-01-13T15:40:31;7.90;1.00
3794;DHT22;1912;51.358;12.282;2023-01-13T15:42:57;7.80;1.00
3794;DHT22;1912;51.358;12.282;2023-01-13T15:45:41;7.80;1.00
3794;DHT22;1912;51.358;12.282;2023-01-13T15:48:27;7.80;1.00
3794;DHT22;1912;51.358;12.282;2023-01-13T15:50:56;7.70;1.00
3794;DHT22;1912;51.358;12.282;2023-01-13T15:53:22;7.60;1.00
3794;DHT22;1912;51.358;12.282;2023-01-13T15:55:54;7.50;1.00
3794;DHT22;1912;51.358;12.282;2023-01-13T15:58:25;7.60;1.00
3794;DHT22;1912;51.358;12.282;2023-01-13T16:00:52;7.50;1.00
3794;DHT22;1912;51.358;12.282;2023-01-13T16:03:18;7.50;1.00
3794;DHT22;1912;51.358;12.282;2023-01-13T16:05:44;7.60;1.00
3794;DHT22;1912;51.358;12.282;2023-01-13T16:08:21;7.80;1.00
3794;DHT22;1912;51.358;12.282;2023-01-13T16:10:48;7.70;1.00
3794;DHT22;1912;51.358;12.282;2023-01-13T16:13:15;7.70;1.00
3794;DHT22;1912;51.358;12.282;2023-01-13T16:15:50;7.70;1.00
3794;DHT22;1912;51.358;12.282;2023-01-13T16:18:18;7.70;1.00
3794;DHT22;1912;51.358;12.282;2023-01-13T16:20:46;7.70;1.00
3794;DHT22;1912;51.358;12.282;2023-01-13T16:23:12;7.80;1.00
3794;DHT22;1912;51.358;12.282;2023-01-13T16:25:39;7.70;1.00
3794;DHT22;1912;51.358;12.282;2023-01-13T16:28:22;7.70;1.00
3794;DHT22;1912;51.358;12.282;2023-01-13T16:30:49;7.70;1.00
3794;DHT22;1912;51.358;12.282;2023-01-13T16:33:15;7.70;1.00
3794;DHT22;1912;51.358;12.282;2023-01-13T16:35:41;7.70;1.00
3794;DHT22;1912;51.358;12.282;2023-01-13T16:38:14;7.80;1.00
3794;DHT22;1912;51.358;12.282;2023-01-13T16:40:41;7.80;1.00
3794;DHT22;1912;51.358;12.282;2023-01-13T16:43:12;7.90;1.00
3794;DHT22;1912;51.358;12.282;2023-01-13T16:45:39;7.90;1.00
3794;DHT22;1912;51.358;12.282;2023-01-13T16:48:05;7.90;1.00
3794;DHT22;1912;51.358;12.282;2023-01-13T16:50:39;7.90;1.00
3794;DHT22;1912;51.358;12.282;2023-01-13T16:53:07;8.00;1.00
3794;DHT22;1912;51.358;12.282;2023-01-13T16:55:34;8.00;1.00
3794;DHT22;1912;51.358;12.282;2023-01-13T16:58:00;8.00;1.00
3794;DHT22;1912;51.358;12.282;2023-01-13T17:00:26;8.00;1.00
3794;DHT22;1912;51.358;12.282;2023-01-13T17:02:52;8.00;1.00
3794;DHT22;1912;51.358;12.282;2023-01-13T17:05:18;7.90;1.00
3794;DHT22;1912;51.358;12.282;2023-01-13T17:07:45;7.90;1.00
3794;DHT22;1912;51.358;12.282;2023-01-13T17:10:15;7.90;1.00
3794;DHT22;1912;51.358;12.282;2023-01-13T17:12:43;7.90;1.00
3794;DHT22;1912;51.358;12.282;2023-01-13T17:15:11;8.10;1.00
3794;DHT22;1912;51.358;12.282;2023-01-13T17:17:38;8.10;1.00
3794;DHT22;1912;51.358;12.282;2023-01-13T17:20:04;8.10;1.00
3794;DHT22;1912;51.358;12.282;2023-01-13T17:22:30;8.10;1.00
3794;DHT22;1912;51.358;12.282;2023-01-13T17:24:56;8.10;1.00
3794;DHT22;1912;51.358;12.282;2023-01-13T17:27:22;8.00;1.00
3794;DHT22;1912;51.358;12.282;2023-01-13T17:29:48;8.10;1.00
3794;DHT22;1912;51.358;12.282;2023-01-13T17:32:18;8.10;1.00
3794;DHT22;1912;51.358;12.282;2023-01-13T17:34:44;8.00;1.00
3794;DHT22;1912;51.358;12.282;2023-01-13T17:37:11;8.00;1.00
3794;DHT22;1912;51.358;12.282;2023-01-13T17:39:40;8.10;1.00
3794;DHT22;1912;51.358;12.282;2023-01-13T17:42:08;8.00;1.00
3794;DHT22;1912;51.358;12.282;2023-01-13T17:44:35;8.00;1.00
3794;DHT22;1912;51.358;12.282;2023-01-13T17:47:01;8.00;1.00
3794;DHT22;1912;51.358;12.282;2023-01-13T17:49:27;8.00;1.00
3794;DHT22;1912;51.358;12.282;2023-01-13T17:51:53;8.00;1.00
3794;DHT22;1912;51.358;12.282;2023-01-13T17:54:19;8.00;1.00
3794;DHT22;1912;51.358;12.282;2023-01-13T17:56:46;8.00;1.00
3794;DHT22;1912;51.358;12.282;2023-01-13T17:59:13;8.00;1.00
3794;DHT22;1912;51.358;12.282;2023-01-13T18:01:40;8.00;1.00
3794;DHT22;1912;51.358;12.282;2023-01-13T18:04:07;7.90;1.00
3794;DHT22;1912;51.358;12.282;2023-01-13T18:06:34;7.90;1.00
3794;DHT22;1912;51.358;12.282;2023-01-13T18:09:00;7.90;1.00
3794;DHT22;1912;51.358;12.282;2023-01-13T18:11:26;7.90;1.00
3794;DHT22;1912;51.358;12.282;2023-01-13T18:13:53;7.90;1.00
3794;DHT22;1912;51.358;12.282;2023-01-13T18:16:20;7.90;1.00
3794;DHT22;1912;51.358;12.282;2023-01-13T18:18:48;7.90;1.00
3794;DHT22;1912;51.358;12.282;2023-01-13T18:21:20;7.90;1.00
3794;DHT22;1912;51.358;12.282;2023-01-13T18:24:14;7.90;1.00
3794;DHT22;1912;51.358;12.282;2023-01-13T18:27:00;8.00;1.00
3794;DHT22;1912;51.358;12.282;2023-01-13T18:29:55;7.90;1.00
3794;DHT22;1912;51.358;12.282;2023-01-13T18:32:23;7.90;1.00
3794;DHT22;1912;51.358;12.282;2023-01-13T18:34:59;7.90;1.00
3794;DHT22;1912;51.358;12.282;2023-01-13T18:37:26;7.80;1.00
3794;DHT22;1912;51.358;12.282;2023-01-13T18:39:52;7.80;1.00
3794;DHT22;1912;51.358;12.282;2023-01-13T18:42:18;7.80;1.00
3794;DHT22;1912;51.358;12.282;2023-01-13T18:45:02;7.70;1.00
3794;DHT22;1912;51.358;12.282;2023-01-13T18:47:29;7.70;1.00
3794;DHT22;1912;51.358;12.282;2023-01-13T18:49:56;7.70;1.00
3794;DHT22;1912;51.358;12.282;2023-01-13T18:52:22;7.70;1.00
3794;DHT22;1912;51.358;12.282;2023-01-13T18:54:47;7.60;1.00
3794;DHT22;1912;51.358;12.282;2023-01-13T18:57:14;7.60;1.00
3794;DHT22;1912;51.358;12.282;2023-01-13T18:59:40;7.50;1.00
3794;DHT22;1912;51.358;12.282;2023-01-13T19:02:13;7.50;1.00
3794;DHT22;1912;51.358;12.282;2023-01-13T19:04:40;7.50;1.00
3794;DHT22;1912;51.358;12.282;2023-01-13T19:07:06;7.50;1.00